createdAt,value
2023-06-08T00:00:13.504Z,1559.99
2023-06-08T00:01:13.380Z,1559.56
2023-06-08T00:02:13.351Z,1560.21
2023-06-08T00:03:13.210Z,1559.73
2023-06-08T00:04:13.293Z,1559.60
2023-06-08T00:05:13.464Z,1559.30
2023-06-08T00:06:13.506Z,1559.21
2023-06-08T00:07:13.878Z,1559.23
2023-06-08T00:08:12.849Z,1559.64
2023-06-08T00:09:13.839Z,1560.04
2023-06-08T00:10:13.988Z,1560.15
2023-06-08T00:11:12.908Z,1559.06
2023-06-08T00:12:12.749Z,1559.36
2023-06-08T00:13:13.782Z,1560.03
2023-06-08T00:14:13.800Z,1559.80
2023-06-08T00:15:13.932Z,1559.87
2023-06-08T00:16:12.769Z,1559.87
2023-06-08T00:17:13.931Z,1559.69
2023-06-08T00:18:12.944Z,1558.80
2023-06-08T00:19:13.019Z,1558.37
2023-06-08T00:20:12.896Z,1559.13
2023-06-08T00:21:12.776Z,1559.25
2023-06-08T00:22:13.629Z,1559.33
2023-06-08T00:23:13.538Z,1559.25
2023-06-08T00:24:13.549Z,1558.27
2023-06-08T00:25:13.429Z,1558.45
2023-06-08T00:26:13.254Z,1558.63
2023-06-08T00:27:13.126Z,1558.86
2023-06-08T00:28:14.349Z,1558.90
2023-06-08T00:29:13.456Z,1558.72
2023-06-08T00:30:13.327Z,1558.37
2023-06-08T00:31:13.204Z,1558.48
2023-06-08T00:32:13.110Z,1559.32
2023-06-08T00:33:12.986Z,1558.29
2023-06-08T00:34:12.790Z,1558.58
2023-06-08T00:35:13.662Z,1558.62
2023-06-08T00:36:13.460Z,1559.07
2023-06-08T00:37:13.348Z,1559.00
2023-06-08T00:38:13.179Z,1558.48
2023-06-08T00:39:13.019Z,1559.54
2023-06-08T00:40:12.793Z,1558.75
2023-06-08T00:41:13.731Z,1557.72
2023-06-08T00:42:13.882Z,1558.76
2023-06-08T00:43:13.935Z,1558.56
2023-06-08T00:44:12.788Z,1558.30
2023-06-08T00:45:13.677Z,1558.45
2023-06-08T00:46:13.785Z,1557.67
2023-06-08T00:47:15.295Z,1557.97
2023-06-08T00:48:12.797Z,1557.65
2023-06-08T00:49:13.632Z,1557.23
2023-06-08T00:50:13.579Z,1557.71
2023-06-08T00:51:13.773Z,1557.50
2023-06-08T00:52:13.669Z,1558.30
2023-06-08T00:53:13.624Z,1557.18
2023-06-08T00:54:13.765Z,1557.22
2023-06-08T00:55:13.604Z,1558.30
2023-06-08T00:56:13.636Z,1558.48
2023-06-08T00:57:13.784Z,1557.96
2023-06-08T00:58:13.917Z,1557.38
2023-06-08T00:59:13.173Z,1557.36
2023-06-08T01:00:13.422Z,1558.05
2023-06-08T01:01:13.728Z,1556.95
2023-06-08T01:02:13.885Z,1557.71
2023-06-08T01:03:13.754Z,1557.66
2023-06-08T01:04:13.997Z,1557.78
2023-06-08T01:05:12.834Z,1557.75
2023-06-08T01:06:13.850Z,1557.86
2023-06-08T01:07:13.679Z,1558.22
2023-06-08T01:08:13.685Z,1557.37
2023-06-08T01:09:13.664Z,1557.20
2023-06-08T01:10:13.926Z,1556.76
2023-06-08T01:11:13.056Z,1557.52
2023-06-08T01:12:12.978Z,1558.15
2023-06-08T01:13:12.831Z,1557.44
2023-06-08T01:14:13.683Z,1557.35
2023-06-08T01:15:13.717Z,1556.90
2023-06-08T01:16:13.567Z,1557.12
2023-06-08T01:17:13.373Z,1556.20
2023-06-08T01:18:13.251Z,1556.10
2023-06-08T01:19:13.397Z,1557.01
2023-06-08T01:20:13.470Z,1557.57
2023-06-08T01:21:13.226Z,1556.97
2023-06-08T01:22:13.362Z,1555.73
2023-06-08T01:23:13.244Z,1555.99
2023-06-08T01:24:13.728Z,1556.91
2023-06-08T01:25:12.897Z,1557.47
2023-06-08T01:26:12.836Z,1557.16
2023-06-08T01:27:13.745Z,1556.22
2023-06-08T01:28:13.849Z,1557.05
2023-06-08T01:29:12.880Z,1556.45
2023-06-08T01:30:12.764Z,1555.65
2023-06-08T01:31:13.673Z,1555.91
2023-06-08T01:32:13.762Z,1555.86
2023-06-08T01:33:13.999Z,1555.42
2023-06-08T01:34:12.883Z,1555.12
2023-06-08T01:35:13.750Z,1555.84
2023-06-08T01:36:13.613Z,1556.15
2023-06-08T01:37:13.354Z,1556.46
2023-06-08T01:38:13.231Z,1555.93
2023-06-08T01:39:13.055Z,1554.89
2023-06-08T01:40:12.877Z,1555.18
2023-06-08T01:41:13.634Z,1555.67
2023-06-08T01:42:13.506Z,1555.42
2023-06-08T01:43:13.436Z,1555.65
2023-06-08T01:44:13.205Z,1554.60
2023-06-08T01:45:13.201Z,1554.98
2023-06-08T01:46:13.135Z,1555.36
2023-06-08T01:47:13.239Z,1554.98
2023-06-08T01:48:13.065Z,1554.82
2023-06-08T01:49:12.792Z,1554.50
2023-06-08T01:50:13.574Z,1555.15
2023-06-08T01:51:13.660Z,1554.49
2023-06-08T01:52:13.651Z,1554.67
2023-06-08T01:53:13.486Z,1555.51
2023-06-08T01:54:13.645Z,1555.10
2023-06-08T01:55:13.415Z,1554.15
2023-06-08T01:56:13.526Z,1554.45
2023-06-08T01:57:13.659Z,1554.96
2023-06-08T01:58:13.606Z,1554.79
2023-06-08T01:59:13.762Z,1555.20
2023-06-08T02:00:13.559Z,1554.76
2023-06-08T02:01:13.629Z,1554.59
2023-06-08T02:02:13.566Z,1554.73
2023-06-08T02:03:13.415Z,1554.20
2023-06-08T02:04:13.361Z,1555.07
2023-06-08T02:05:13.139Z,1555.42
2023-06-08T02:06:13.000Z,1554.75
2023-06-08T02:07:12.840Z,1554.43
2023-06-08T02:08:13.814Z,1553.92
2023-06-08T02:09:13.658Z,1554.68
2023-06-08T02:10:13.515Z,1554.88
2023-06-08T02:11:13.386Z,1555.06
2023-06-08T02:12:13.448Z,1555.56
2023-06-08T02:13:13.195Z,1554.06
2023-06-08T02:14:13.034Z,1554.45
2023-06-08T02:15:12.810Z,1554.94
2023-06-08T02:16:13.758Z,1555.41
2023-06-08T02:17:13.675Z,1553.83
2023-06-08T02:18:13.678Z,1554.20
2023-06-08T02:19:13.540Z,1555.22
2023-06-08T02:20:13.367Z,1555.29
2023-06-08T02:21:13.493Z,1555.24
2023-06-08T02:22:13.606Z,1554.92
2023-06-08T02:23:14.054Z,1554.86
2023-06-08T02:24:13.343Z,1554.89
2023-06-08T02:25:13.239Z,1555.45
2023-06-08T02:26:13.149Z,1555.29
2023-06-08T02:27:13.024Z,1555.56
2023-06-08T02:28:13.156Z,1555.08
2023-06-08T02:29:12.975Z,1554.13
2023-06-08T02:30:13.284Z,1554.89
2023-06-08T02:31:13.318Z,1554.79
2023-06-08T02:32:13.125Z,1554.32
2023-06-08T02:33:13.055Z,1554.22
2023-06-08T02:34:13.696Z,1554.66
2023-06-08T02:35:13.726Z,1553.81
2023-06-08T02:36:14.015Z,1554.06
2023-06-08T02:37:13.043Z,1554.00
2023-06-08T02:38:12.989Z,1554.74
2023-06-08T02:39:13.283Z,1555.09
2023-06-08T02:40:13.083Z,1555.07
2023-06-08T02:41:12.997Z,1554.81
2023-06-08T02:42:13.132Z,1554.31
2023-06-08T02:43:12.940Z,1554.27
2023-06-08T02:44:12.748Z,1553.97
2023-06-08T02:45:13.530Z,1553.86
2023-06-08T02:46:13.546Z,1553.30
2023-06-08T02:47:13.630Z,1552.91
2023-06-08T02:48:13.570Z,1552.66
2023-06-08T02:49:13.333Z,1552.80
2023-06-08T02:50:13.188Z,1552.61
2023-06-08T02:51:12.990Z,1552.32
2023-06-08T02:52:12.702Z,1553.11
2023-06-08T02:53:13.461Z,1553.01
2023-06-08T02:54:13.166Z,1553.23
2023-06-08T02:55:12.900Z,1553.47
2023-06-08T02:56:12.749Z,1553.38
2023-06-08T02:57:18.580Z,1552.49
2023-06-08T02:58:13.481Z,1552.63
2023-06-08T02:59:13.487Z,1552.68
2023-06-08T03:00:13.526Z,1552.83
2023-06-08T03:01:20.983Z,1552.50
2023-06-08T03:02:13.369Z,1552.58
2023-06-08T03:03:13.681Z,1552.73
2023-06-08T03:04:13.744Z,1553.28
2023-06-08T03:05:13.820Z,1552.94
2023-06-08T03:06:13.620Z,1552.73
2023-06-08T03:07:13.405Z,1552.51
2023-06-08T03:08:13.195Z,1552.97
2023-06-08T03:09:13.400Z,1552.49
2023-06-08T03:10:13.311Z,1553.12
2023-06-08T03:11:13.039Z,1553.08
2023-06-08T03:12:13.511Z,1552.85
2023-06-08T03:13:13.825Z,1552.94
2023-06-08T03:14:13.859Z,1552.47
2023-06-08T03:15:13.942Z,1551.31
2023-06-08T03:16:12.839Z,1552.35
2023-06-08T03:17:13.644Z,1552.21
2023-06-08T03:18:13.418Z,1551.80
2023-06-08T03:19:13.161Z,1552.33
2023-06-08T03:20:12.953Z,1552.05
2023-06-08T03:21:12.937Z,1552.02
2023-06-08T03:22:12.829Z,1551.23
2023-06-08T03:23:13.661Z,1551.98
2023-06-08T03:24:13.502Z,1551.90
2023-06-08T03:25:13.319Z,1551.15
2023-06-08T03:26:13.065Z,1551.66
2023-06-08T03:27:12.878Z,1552.27
2023-06-08T03:28:13.650Z,1552.46
2023-06-08T03:29:13.878Z,1551.63
2023-06-08T03:30:14.456Z,1551.14
2023-06-08T03:31:13.810Z,1551.28
2023-06-08T03:32:13.694Z,1551.20
2023-06-08T03:33:13.437Z,1551.32
2023-06-08T03:34:13.227Z,1551.76
2023-06-08T03:35:13.313Z,1552.26
2023-06-08T03:36:13.131Z,1551.79
2023-06-08T03:37:12.981Z,1551.13
2023-06-08T03:38:12.802Z,1551.39
2023-06-08T03:39:13.916Z,1552.35
2023-06-08T03:40:12.822Z,1552.14
2023-06-08T03:41:13.623Z,1551.48
2023-06-08T03:42:13.592Z,1551.42
2023-06-08T03:43:13.591Z,1551.94
2023-06-08T03:44:13.593Z,1551.47
2023-06-08T03:45:13.419Z,1551.29
2023-06-08T03:46:13.388Z,1551.69
2023-06-08T03:47:13.241Z,1552.02
2023-06-08T03:48:13.300Z,1551.59
2023-06-08T03:49:13.175Z,1551.00
2023-06-08T03:50:13.233Z,1550.71
2023-06-08T03:51:13.416Z,1550.65
2023-06-08T03:52:13.363Z,1550.81
2023-06-08T03:53:13.185Z,1550.70
2023-06-08T03:54:13.097Z,1551.14
2023-06-08T03:55:12.922Z,1551.54
2023-06-08T03:56:12.831Z,1550.77
2023-06-08T03:57:13.709Z,1550.54
2023-06-08T03:58:13.432Z,1550.93
2023-06-08T03:59:14.391Z,1550.59
2023-06-08T04:00:13.564Z,1551.37
2023-06-08T04:01:13.506Z,1551.20
2023-06-08T04:02:13.683Z,1551.03
2023-06-08T04:03:13.911Z,1551.20
2023-06-08T04:04:13.032Z,1551.98
2023-06-08T04:05:12.884Z,1551.29
2023-06-08T04:06:13.988Z,1550.39
2023-06-08T04:07:13.094Z,1551.06
2023-06-08T04:08:13.014Z,1550.52
2023-06-08T04:09:13.118Z,1551.78
2023-06-08T04:10:13.085Z,1551.69
2023-06-08T04:11:12.878Z,1551.74
2023-06-08T04:12:13.946Z,1551.32
2023-06-08T04:13:12.755Z,1551.33
2023-06-08T04:14:13.610Z,1550.46
2023-06-08T04:15:13.432Z,1551.38
2023-06-08T04:16:13.263Z,1551.11
2023-06-08T04:17:13.228Z,1550.94
2023-06-08T04:18:13.001Z,1551.28
2023-06-08T04:19:13.126Z,1551.76
2023-06-08T04:20:12.969Z,1550.42
2023-06-08T04:21:13.000Z,1550.33
2023-06-08T04:22:12.949Z,1550.48
2023-06-08T04:23:14.001Z,1552.29
2023-06-08T04:24:12.902Z,1551.97
2023-06-08T04:25:13.004Z,1551.52
2023-06-08T04:26:12.781Z,1551.05
2023-06-08T04:27:13.676Z,1552.12
2023-06-08T04:28:13.568Z,1552.51
2023-06-08T04:29:13.516Z,1552.35
2023-06-08T04:30:13.449Z,1551.70
2023-06-08T04:31:13.404Z,1552.27
2023-06-08T04:32:14.382Z,1551.55
2023-06-08T04:33:13.342Z,1552.21
2023-06-08T04:34:13.312Z,1553.02
2023-06-08T04:35:13.252Z,1552.02
2023-06-08T04:36:13.198Z,1551.57
2023-06-08T04:37:12.984Z,1551.81
2023-06-08T04:38:14.556Z,1551.58
2023-06-08T04:39:13.629Z,1551.27
2023-06-08T04:40:13.433Z,1551.85
2023-06-08T04:41:13.658Z,1551.48
2023-06-08T04:42:13.467Z,1552.14
2023-06-08T04:43:13.341Z,1552.28
2023-06-08T04:44:13.340Z,1553.31
2023-06-08T04:45:13.234Z,1552.19
2023-06-08T04:46:13.101Z,1552.36
2023-06-08T04:47:13.088Z,1552.81
2023-06-08T04:48:13.034Z,1552.27
2023-06-08T04:49:12.757Z,1552.26
2023-06-08T04:50:13.785Z,1552.68
2023-06-08T04:51:13.705Z,1552.89
2023-06-08T04:52:13.682Z,1553.56
2023-06-08T04:53:13.673Z,1553.65
2023-06-08T04:54:13.697Z,1554.32
2023-06-08T04:55:13.678Z,1554.89
2023-06-08T04:56:13.500Z,1554.65
2023-06-08T04:57:13.399Z,1554.70
2023-06-08T04:58:13.417Z,1555.12
2023-06-08T04:59:13.329Z,1555.23
2023-06-08T05:00:13.130Z,1554.28
2023-06-08T05:01:13.045Z,1554.88
2023-06-08T05:02:12.922Z,1554.84
2023-06-08T05:03:12.954Z,1554.28
2023-06-08T05:04:13.020Z,1554.12
2023-06-08T05:05:12.870Z,1553.92
2023-06-08T05:06:13.809Z,1553.80
2023-06-08T05:07:13.610Z,1554.10
2023-06-08T05:08:13.431Z,1553.03
2023-06-08T05:09:13.229Z,1552.78
2023-06-08T05:10:13.277Z,1553.48
2023-06-08T05:11:13.333Z,1552.83
2023-06-08T05:12:13.094Z,1553.19
2023-06-08T05:13:12.958Z,1553.74
2023-06-08T05:14:12.737Z,1554.60
2023-06-08T05:15:13.793Z,1554.86
2023-06-08T05:16:13.879Z,1553.51
2023-06-08T05:17:12.912Z,1552.88
2023-06-08T05:18:12.898Z,1553.66
2023-06-08T05:19:12.807Z,1554.49
2023-06-08T05:20:13.787Z,1554.68
2023-06-08T05:21:13.692Z,1555.00
2023-06-08T05:22:13.445Z,1555.55
2023-06-08T05:23:13.565Z,1554.57
2023-06-08T05:24:13.508Z,1555.57
2023-06-08T05:25:13.511Z,1555.63
2023-06-08T05:26:13.401Z,1554.94
2023-06-08T05:27:13.737Z,1554.83
2023-06-08T05:28:13.725Z,1554.71
2023-06-08T05:29:13.817Z,1555.54
2023-06-08T05:30:13.717Z,1556.27
2023-06-08T05:31:13.668Z,1555.16
2023-06-08T05:32:13.544Z,1555.93
2023-06-08T05:33:13.821Z,1556.20
2023-06-08T05:34:14.129Z,1557.56
2023-06-08T05:35:13.080Z,1557.14
2023-06-08T05:36:12.866Z,1555.46
2023-06-08T05:37:13.790Z,1556.25
2023-06-08T05:38:13.630Z,1555.88
2023-06-08T05:39:13.676Z,1556.22
2023-06-08T05:40:13.506Z,1557.05
2023-06-08T05:41:13.312Z,1556.24
2023-06-08T05:42:13.096Z,1557.33
2023-06-08T05:43:12.868Z,1559.08
2023-06-08T05:44:12.711Z,1558.48
2023-06-08T05:45:13.605Z,1557.86
2023-06-08T05:46:13.336Z,1558.43
2023-06-08T05:47:13.248Z,1559.82
2023-06-08T05:48:13.211Z,1558.12
2023-06-08T05:49:13.236Z,1558.92
2023-06-08T05:50:13.230Z,1559.85
2023-06-08T05:51:13.160Z,1558.46
2023-06-08T05:52:13.285Z,1558.27
2023-06-08T05:53:13.051Z,1558.20
2023-06-08T05:54:12.853Z,1557.28
2023-06-08T05:55:13.816Z,1558.37
2023-06-08T05:56:13.618Z,1557.92
2023-06-08T05:57:13.470Z,1558.25
2023-06-08T05:58:13.390Z,1558.27
2023-06-08T05:59:13.322Z,1559.00
2023-06-08T06:00:13.389Z,1557.57
2023-06-08T06:01:13.542Z,1558.50
2023-06-08T06:02:13.433Z,1558.10
2023-06-08T06:03:13.366Z,1557.66
2023-06-08T06:04:26.250Z,1557.53
2023-06-08T06:05:13.588Z,1557.40
2023-06-08T06:06:13.641Z,1558.08
2023-06-08T06:07:13.652Z,1557.97
2023-06-08T06:08:13.380Z,1557.46
2023-06-08T06:09:13.344Z,1557.23
2023-06-08T06:10:13.251Z,1558.16
2023-06-08T06:11:13.218Z,1557.82
2023-06-08T06:12:13.355Z,1556.79
2023-06-08T06:13:13.222Z,1556.68
2023-06-08T06:14:13.220Z,1557.42
2023-06-08T06:15:13.041Z,1556.97
2023-06-08T06:16:15.699Z,1556.59
2023-06-08T06:17:13.300Z,1556.65
2023-06-08T06:18:13.352Z,1557.99
2023-06-08T06:19:13.063Z,1558.13
2023-06-08T06:20:12.908Z,1558.53
2023-06-08T06:21:12.730Z,1557.67
2023-06-08T06:22:13.635Z,1558.37
2023-06-08T06:23:13.635Z,1558.55
2023-06-08T06:24:13.912Z,1558.56
2023-06-08T06:25:12.795Z,1556.89
2023-06-08T06:26:13.643Z,1558.29
2023-06-08T06:27:13.470Z,1558.73
2023-06-08T06:28:13.268Z,1557.91
2023-06-08T06:29:13.718Z,1557.77
2023-06-08T06:30:13.558Z,1557.00
2023-06-08T06:31:13.535Z,1557.74
2023-06-08T06:32:13.602Z,1557.43
2023-06-08T06:33:13.715Z,1558.43
2023-06-08T06:34:13.730Z,1557.74
2023-06-08T06:35:13.609Z,1556.93
2023-06-08T06:36:13.572Z,1556.92
2023-06-08T06:37:13.646Z,1558.03
2023-06-08T06:38:13.912Z,1557.33
2023-06-08T06:39:12.645Z,1557.72
2023-06-08T06:40:13.606Z,1559.08
2023-06-08T06:41:13.364Z,1559.78
2023-06-08T06:42:13.235Z,1559.95
2023-06-08T06:43:13.039Z,1560.25
2023-06-08T06:44:13.028Z,1559.12
2023-06-08T06:45:12.795Z,1559.40
2023-06-08T06:46:13.619Z,1559.70
2023-06-08T06:47:13.620Z,1558.60
2023-06-08T06:48:13.505Z,1558.44
2023-06-08T06:49:13.442Z,1558.18
2023-06-08T06:50:13.340Z,1558.98
2023-06-08T06:51:13.292Z,1558.37
2023-06-08T06:52:13.119Z,1557.80
2023-06-08T06:53:13.022Z,1558.27
2023-06-08T06:54:12.828Z,1557.23
2023-06-08T06:55:13.703Z,1559.13
2023-06-08T06:56:13.518Z,1558.71
2023-06-08T06:57:13.359Z,1558.53
2023-06-08T06:58:13.498Z,1559.42
2023-06-08T06:59:13.261Z,1560.22
2023-06-08T07:00:13.140Z,1560.26
2023-06-08T07:01:13.295Z,1560.48
2023-06-08T07:02:13.176Z,1560.35
2023-06-08T07:03:13.228Z,1560.28
2023-06-08T07:04:13.301Z,1560.60
2023-06-08T07:05:13.323Z,1560.57
2023-06-08T07:06:13.438Z,1560.41
2023-06-08T07:07:13.773Z,1559.54
2023-06-08T07:08:14.055Z,1559.70
2023-06-08T07:09:12.965Z,1559.37
2023-06-08T07:10:12.986Z,1558.89
2023-06-08T07:11:12.918Z,1558.98
2023-06-08T07:12:15.622Z,1560.23
2023-06-08T07:13:13.553Z,1560.35
2023-06-08T07:14:13.420Z,1561.64
2023-06-08T07:15:13.185Z,1561.14
2023-06-08T07:16:13.021Z,1561.15
2023-06-08T07:17:13.213Z,1559.94
2023-06-08T07:18:13.080Z,1560.36
2023-06-08T07:19:12.984Z,1561.38
2023-06-08T07:20:13.210Z,1560.02
2023-06-08T07:21:13.464Z,1561.21
2023-06-08T07:22:21.185Z,1560.68
2023-06-08T07:23:28.904Z,1560.34
2023-06-08T07:25:12.042Z,1558.72
2023-06-08T07:25:43.982Z,1559.45
2023-06-08T07:26:29.956Z,1558.77
2023-06-08T07:27:12.899Z,1558.26
2023-06-08T07:28:12.830Z,1559.23
2023-06-08T07:29:13.798Z,1558.88
2023-06-08T07:30:13.584Z,1559.71
2023-06-08T07:31:13.584Z,1560.77
2023-06-08T07:32:13.542Z,1560.67
2023-06-08T07:33:13.535Z,1560.64
2023-06-08T07:34:13.548Z,1560.55
2023-06-08T07:35:13.289Z,1559.47
2023-06-08T07:36:13.383Z,1559.01
2023-06-08T07:37:13.291Z,1561.37
2023-06-08T07:38:13.134Z,1560.28
2023-06-08T07:39:12.958Z,1561.19
2023-06-08T07:40:13.072Z,1559.98
2023-06-08T07:41:13.259Z,1559.47
2023-06-08T07:42:13.516Z,1559.12
2023-06-08T07:43:13.386Z,1561.16
2023-06-08T07:44:13.428Z,1562.10
2023-06-08T07:45:13.253Z,1561.16
2023-06-08T07:46:13.051Z,1561.28
2023-06-08T07:47:13.005Z,1560.87
2023-06-08T07:48:12.972Z,1559.99
2023-06-08T07:49:12.726Z,1559.09
2023-06-08T07:50:13.684Z,1558.98
2023-06-08T07:51:13.659Z,1559.29
2023-06-08T07:52:13.465Z,1560.06
2023-06-08T07:53:13.304Z,1560.86
2023-06-08T07:54:13.174Z,1561.60
2023-06-08T07:55:12.985Z,1560.77
2023-06-08T07:56:13.094Z,1561.19
2023-06-08T07:57:13.298Z,1562.88
2023-06-08T07:58:13.392Z,1561.06
2023-06-08T07:59:13.283Z,1561.16
2023-06-08T08:00:13.247Z,1561.65
2023-06-08T08:01:13.021Z,1562.12
2023-06-08T08:02:13.056Z,1562.62
2023-06-08T08:03:13.242Z,1561.09
2023-06-08T08:04:13.241Z,1561.30
2023-06-08T08:05:13.260Z,1561.71
2023-06-08T08:06:13.119Z,1562.81
2023-06-08T08:07:12.929Z,1563.15
2023-06-08T08:08:12.744Z,1562.39
2023-06-08T08:09:13.465Z,1562.49
2023-06-08T08:10:13.531Z,1562.37
2023-06-08T08:11:13.567Z,1562.31
2023-06-08T08:12:13.626Z,1562.86
2023-06-08T08:13:13.419Z,1562.72
2023-06-08T08:14:13.254Z,1563.13
2023-06-08T08:15:13.158Z,1562.51
2023-06-08T08:16:13.335Z,1563.19
2023-06-08T08:17:13.231Z,1563.97
2023-06-08T08:18:13.160Z,1565.21
2023-06-08T08:19:13.156Z,1563.83
2023-06-08T08:20:12.984Z,1563.27
2023-06-08T08:21:12.940Z,1562.66
2023-06-08T08:22:15.211Z,1563.66
2023-06-08T08:23:13.380Z,1564.58
2023-06-08T08:24:13.299Z,1565.12
2023-06-08T08:25:13.103Z,1565.78
2023-06-08T08:26:13.053Z,1564.80
2023-06-08T08:27:12.856Z,1565.09
2023-06-08T08:28:13.946Z,1564.28
2023-06-08T08:29:12.735Z,1563.56
2023-06-08T08:30:13.670Z,1563.77
2023-06-08T08:31:13.793Z,1565.10
2023-06-08T08:32:13.607Z,1565.48
2023-06-08T08:33:16.534Z,1564.13
2023-06-08T08:34:13.425Z,1565.90
2023-06-08T08:35:13.270Z,1566.55
2023-06-08T08:36:13.093Z,1567.09
2023-06-08T08:37:12.889Z,1567.21
2023-06-08T08:38:13.001Z,1567.43
2023-06-08T08:39:13.021Z,1568.64
2023-06-08T08:40:13.214Z,1568.37
2023-06-08T08:41:13.343Z,1567.10
2023-06-08T08:42:13.235Z,1565.59
2023-06-08T08:43:13.242Z,1563.57
2023-06-08T08:44:13.183Z,1563.80
2023-06-08T08:45:13.042Z,1564.84
2023-06-08T08:46:12.997Z,1565.40
2023-06-08T08:47:12.892Z,1566.64
2023-06-08T08:48:12.983Z,1564.85
2023-06-08T08:49:13.167Z,1563.70
2023-06-08T08:50:13.272Z,1564.66
2023-06-08T08:51:13.066Z,1565.94
2023-06-08T08:52:13.615Z,1566.87
2023-06-08T08:53:13.606Z,1565.71
2023-06-08T08:54:13.812Z,1567.43
2023-06-08T08:55:25.921Z,1566.60
2023-06-08T08:56:13.164Z,1568.54
2023-06-08T08:57:12.971Z,1566.12
2023-06-08T08:58:12.807Z,1567.72
2023-06-08T08:59:13.637Z,1569.23
2023-06-08T09:00:13.524Z,1570.37
2023-06-08T09:01:13.509Z,1569.62
2023-06-08T09:02:13.568Z,1569.86
2023-06-08T09:03:13.492Z,1569.27
2023-06-08T09:04:13.555Z,1567.49
2023-06-08T09:05:13.502Z,1569.27
2023-06-08T09:06:13.304Z,1568.11
2023-06-08T09:07:13.450Z,1566.96
2023-06-08T09:08:13.212Z,1567.35
2023-06-08T09:09:13.137Z,1568.78
2023-06-08T09:10:13.056Z,1568.24
2023-06-08T09:11:12.901Z,1566.99
2023-06-08T09:12:13.911Z,1568.20
2023-06-08T09:13:12.968Z,1568.32
2023-06-08T09:14:12.924Z,1569.27
2023-06-08T09:15:17.893Z,1568.31
2023-06-08T09:16:12.712Z,1567.40
2023-06-08T09:17:15.528Z,1567.78
2023-06-08T09:18:13.458Z,1568.48
2023-06-08T09:19:13.428Z,1567.96
2023-06-08T09:20:13.292Z,1569.49
2023-06-08T09:21:18.285Z,1569.96
2023-06-08T09:22:13.053Z,1571.80
2023-06-08T09:23:12.966Z,1572.32
2023-06-08T09:24:13.045Z,1572.90
2023-06-08T09:25:13.203Z,1571.93
2023-06-08T09:26:13.112Z,1571.07
2023-06-08T09:27:12.950Z,1570.11
2023-06-08T09:28:12.834Z,1570.34
2023-06-08T09:29:13.859Z,1569.56
2023-06-08T09:30:47.994Z,1571.12
2023-06-08T09:31:00.297Z,1570.97
2023-06-08T09:31:17.289Z,1570.69
2023-06-08T09:32:13.327Z,1571.30
2023-06-08T09:33:13.345Z,1571.68
2023-06-08T09:34:13.332Z,1572.52
2023-06-08T09:35:13.275Z,1575.64
2023-06-08T09:36:13.194Z,1574.33
2023-06-08T09:37:13.303Z,1576.40
2023-06-08T09:38:13.320Z,1576.12
2023-06-08T09:39:13.336Z,1574.67
2023-06-08T09:40:13.185Z,1576.41
2023-06-08T09:41:13.189Z,1576.03
2023-06-08T09:42:13.200Z,1575.73
2023-06-08T09:43:13.329Z,1576.21
2023-06-08T09:44:13.696Z,1574.18
2023-06-08T09:45:13.662Z,1577.93
2023-06-08T09:46:13.464Z,1579.43
2023-06-08T09:47:13.427Z,1578.84
2023-06-08T09:48:13.391Z,1577.28
2023-06-08T09:49:13.281Z,1577.78
2023-06-08T09:50:13.307Z,1576.01
2023-06-08T09:51:13.104Z,1573.73
2023-06-08T09:52:13.135Z,1575.55
2023-06-08T09:53:13.114Z,1578.06
2023-06-08T09:54:12.911Z,1580.12
2023-06-08T09:55:12.969Z,1580.65
2023-06-08T09:56:12.748Z,1576.76
2023-06-08T09:57:13.693Z,1579.03
2023-06-08T09:58:13.442Z,1579.37
2023-06-08T09:59:13.280Z,1575.89
2023-06-08T10:00:13.329Z,1577.82
2023-06-08T10:01:13.542Z,1577.83
2023-06-08T10:02:13.542Z,1576.23
2023-06-08T10:03:13.735Z,1576.55
2023-06-08T10:04:14.689Z,1573.23
2023-06-08T10:05:13.510Z,1574.09
2023-06-08T10:06:13.287Z,1574.33
2023-06-08T10:07:13.106Z,1574.05
2023-06-08T10:08:12.933Z,1576.23
2023-06-08T10:09:12.985Z,1577.22
2023-06-08T10:10:12.953Z,1577.88
2023-06-08T10:11:12.837Z,1579.37
2023-06-08T10:12:13.956Z,1578.80
2023-06-08T10:13:12.976Z,1581.06
2023-06-08T10:14:12.878Z,1583.54
2023-06-08T10:15:13.748Z,1579.17
2023-06-08T10:16:13.692Z,1580.60
2023-06-08T10:17:13.772Z,1576.13
2023-06-08T10:18:23.797Z,1574.99
2023-06-08T10:19:13.670Z,1575.03
2023-06-08T10:20:14.595Z,1573.90
2023-06-08T10:21:13.640Z,1573.56
2023-06-08T10:22:13.427Z,1574.86
2023-06-08T10:23:13.204Z,1577.59
2023-06-08T10:24:13.544Z,1577.14
2023-06-08T10:25:13.942Z,1579.72
2023-06-08T10:26:13.383Z,1580.27
2023-06-08T10:27:13.580Z,1580.75
2023-06-08T10:28:13.801Z,1581.38
2023-06-08T10:29:21.657Z,1578.40
2023-06-08T10:30:13.211Z,1577.81
2023-06-08T10:31:13.222Z,1580.11
2023-06-08T10:32:13.063Z,1580.16
2023-06-08T10:33:12.943Z,1579.43
2023-06-08T10:34:12.956Z,1579.00
2023-06-08T10:35:12.862Z,1578.33
2023-06-08T10:36:13.801Z,1578.15
2023-06-08T10:37:13.664Z,1578.85
2023-06-08T10:38:13.548Z,1578.26
2023-06-08T10:39:13.601Z,1575.21
2023-06-08T10:40:13.373Z,1575.95
2023-06-08T10:41:13.184Z,1576.67
2023-06-08T10:42:13.324Z,1577.88
2023-06-08T10:43:33.695Z,1577.08
2023-06-08T10:44:12.907Z,1575.27
2023-06-08T10:45:12.638Z,1577.46
2023-06-08T10:46:13.490Z,1580.73
2023-06-08T10:47:13.489Z,1580.22
2023-06-08T10:48:13.371Z,1580.04
2023-06-08T10:49:13.356Z,1580.37
2023-06-08T10:50:13.406Z,1580.19
2023-06-08T10:51:13.308Z,1581.14
2023-06-08T10:52:13.208Z,1580.86
2023-06-08T10:53:13.338Z,1579.74
2023-06-08T10:54:13.329Z,1576.72
2023-06-08T10:55:13.140Z,1577.84
2023-06-08T10:56:13.161Z,1579.20
2023-06-08T10:57:15.523Z,1577.97
2023-06-08T10:58:13.532Z,1579.74
2023-06-08T10:59:13.397Z,1577.56
2023-06-08T11:00:14.454Z,1577.58
2023-06-08T11:01:13.323Z,1576.93
2023-06-08T11:02:13.592Z,1580.89
2023-06-08T11:03:13.564Z,1580.48
2023-06-08T11:04:18.210Z,1581.84
2023-06-08T11:05:13.255Z,1584.44
2023-06-08T11:06:13.383Z,1581.91
2023-06-08T11:07:13.163Z,1578.37
2023-06-08T11:08:13.017Z,1578.25
2023-06-08T11:09:13.475Z,1577.45
2023-06-08T11:10:13.520Z,1579.26
2023-06-08T11:11:13.509Z,1580.28
2023-06-08T11:12:13.277Z,1582.76
2023-06-08T11:13:13.064Z,1583.77
2023-06-08T11:14:13.277Z,1581.09
2023-06-08T11:15:13.214Z,1581.34
2023-06-08T11:16:14.077Z,1585.56
2023-06-08T11:17:12.891Z,1585.31
2023-06-08T11:18:12.888Z,1584.79
2023-06-08T11:19:12.672Z,1584.08
2023-06-08T11:20:13.490Z,1580.32
2023-06-08T11:21:13.341Z,1580.15
2023-06-08T11:22:13.119Z,1580.46
2023-06-08T11:23:13.032Z,1581.95
2023-06-08T11:24:12.841Z,1585.80
2023-06-08T11:25:12.896Z,1588.26
2023-06-08T11:26:12.619Z,1585.96
2023-06-08T11:27:13.400Z,1582.22
2023-06-08T11:28:13.197Z,1582.42
2023-06-08T11:29:13.259Z,1584.21
2023-06-08T11:30:18.246Z,1582.01
2023-06-08T11:31:13.299Z,1583.41
2023-06-08T11:32:13.284Z,1582.78
2023-06-08T11:33:23.917Z,1583.01
2023-06-08T11:34:38.536Z,1583.59
2023-06-08T11:35:20.125Z,1583.26
2023-06-08T11:36:18.495Z,1581.50
2023-06-08T11:37:49.685Z,1580.90
2023-06-08T11:38:13.985Z,1579.75
2023-06-08T11:40:12.969Z,1581.15
2023-06-08T11:41:12.721Z,1579.77
2023-06-08T11:42:13.806Z,1580.94
2023-06-08T11:43:13.669Z,1580.40
2023-06-08T11:44:13.487Z,1579.42
2023-06-08T11:45:13.419Z,1580.06
2023-06-08T11:46:13.305Z,1582.44
2023-06-08T11:47:13.266Z,1584.11
2023-06-08T11:48:17.318Z,1587.02
2023-06-08T11:49:13.570Z,1585.20
2023-06-08T11:50:13.501Z,1581.30
2023-06-08T11:51:13.800Z,1582.33
2023-06-08T11:52:13.769Z,1582.81
2023-06-08T11:53:13.871Z,1583.24
2023-06-08T11:54:13.683Z,1580.92
2023-06-08T11:55:14.172Z,1583.88
2023-06-08T11:56:13.121Z,1584.26
2023-06-08T11:57:12.940Z,1583.06
2023-06-08T11:58:12.865Z,1580.40
2023-06-08T11:59:13.680Z,1582.43
2023-06-08T12:00:13.649Z,1582.83
2023-06-08T12:01:23.527Z,1586.22
2023-06-08T12:02:13.398Z,1583.12
2023-06-08T12:03:13.368Z,1583.62
2023-06-08T12:04:13.739Z,1582.23
2023-06-08T12:05:13.733Z,1584.66